createdAt,value
2023-04-06T00:00:39.768Z,5.03
2023-04-06T00:01:39.770Z,5.06
2023-04-06T00:02:39.767Z,5.09
2023-04-06T00:03:44.803Z,5.10
2023-04-06T00:04:39.717Z,5.06
2023-04-06T00:05:39.704Z,5.00
2023-04-06T00:06:39.700Z,4.96
2023-04-06T00:07:39.680Z,5.02
2023-04-06T00:08:39.681Z,5.02
2023-04-06T00:09:39.660Z,5.03
2023-04-06T00:10:39.647Z,5.03
2023-04-06T00:11:39.649Z,4.94
2023-04-06T00:12:39.626Z,5.06
2023-04-06T00:13:39.615Z,4.97
2023-04-06T00:14:44.643Z,5.03
2023-04-06T00:15:39.610Z,5.13
2023-04-06T00:16:39.622Z,5.20
2023-04-06T00:17:39.610Z,5.21
2023-04-06T00:18:39.555Z,5.22
2023-04-06T00:19:39.546Z,5.22
2023-04-06T00:20:39.534Z,5.31
2023-04-06T00:21:39.601Z,5.22
2023-04-06T00:22:39.510Z,5.18
2023-04-06T00:23:39.500Z,5.21
2023-04-06T00:24:39.495Z,5.12
2023-04-06T00:25:44.503Z,5.20
2023-04-06T00:26:39.472Z,5.17
2023-04-06T00:27:39.469Z,5.21
2023-04-06T00:28:39.447Z,5.21
2023-04-06T00:29:39.433Z,5.17
2023-04-06T00:30:39.445Z,5.25
2023-04-06T00:31:39.466Z,5.20
2023-04-06T00:32:39.428Z,5.24
2023-04-06T00:33:39.398Z,5.15
2023-04-06T00:34:39.380Z,5.17
2023-04-06T00:35:39.439Z,5.22
2023-04-06T00:36:44.393Z,5.17
2023-04-06T00:37:39.346Z,5.15
2023-04-06T00:38:39.330Z,5.18
2023-04-06T00:39:39.330Z,5.18
2023-04-06T00:40:39.307Z,5.22
2023-04-06T00:41:39.308Z,5.17
2023-04-06T00:42:39.289Z,5.21
2023-04-06T00:43:39.276Z,5.20
2023-04-06T00:44:39.263Z,5.21
2023-04-06T00:45:39.279Z,5.18
2023-04-06T00:46:39.287Z,5.15
2023-04-06T00:47:44.296Z,5.17
2023-04-06T00:48:39.217Z,5.17
2023-04-06T00:49:39.212Z,5.13
2023-04-06T00:50:39.204Z,5.20
2023-04-06T00:51:39.212Z,5.20
2023-04-06T00:52:39.175Z,5.22
2023-04-06T00:53:39.169Z,5.24
2023-04-06T00:54:39.150Z,5.22
2023-04-06T00:55:39.147Z,5.30
2023-04-06T00:56:39.139Z,5.22
2023-04-06T00:57:39.125Z,5.17
2023-04-06T00:58:44.126Z,5.17
2023-04-06T00:59:39.132Z,5.24
2023-04-06T01:00:39.082Z,5.20
2023-04-06T01:01:39.121Z,5.18
2023-04-06T01:02:39.154Z,5.15
2023-04-06T01:03:39.061Z,5.18
2023-04-06T01:04:39.040Z,5.22
2023-04-06T01:05:39.076Z,5.02
2023-04-06T01:06:39.032Z,5.02
2023-04-06T01:07:39.008Z,4.97
2023-04-06T01:08:39.004Z,4.96
2023-04-06T01:09:44.017Z,4.91
2023-04-06T01:10:38.973Z,4.91
2023-04-06T01:11:38.974Z,4.96
2023-04-06T01:12:38.960Z,4.92
2023-04-06T01:13:38.937Z,4.97
2023-04-06T01:14:38.925Z,4.88
2023-04-06T01:15:38.965Z,4.92
2023-04-06T01:16:38.911Z,4.92
2023-04-06T01:17:38.916Z,4.89
2023-04-06T01:18:38.905Z,4.91
2023-04-06T01:19:38.874Z,4.88
2023-04-06T01:20:43.880Z,4.82
2023-04-06T01:21:38.862Z,4.86
2023-04-06T01:22:38.847Z,4.67
2023-04-06T01:23:38.829Z,4.75
2023-04-06T01:24:38.819Z,4.69
2023-04-06T01:25:38.805Z,4.82
2023-04-06T01:26:38.802Z,4.75
2023-04-06T01:27:38.809Z,4.72
2023-04-06T01:28:38.770Z,4.60
2023-04-06T01:29:38.761Z,4.67
2023-04-06T01:30:38.748Z,4.70
2023-04-06T01:31:43.987Z,4.62
2023-04-06T01:32:38.764Z,4.63
2023-04-06T01:33:38.724Z,4.67
2023-04-06T01:34:38.774Z,4.67
2023-04-06T01:35:38.751Z,4.58
2023-04-06T01:36:38.680Z,4.67
2023-04-06T01:37:38.678Z,4.65
2023-04-06T01:38:38.661Z,4.59
2023-04-06T01:39:38.672Z,4.65
2023-04-06T01:40:38.639Z,4.65
2023-04-06T01:41:38.624Z,4.70
2023-04-06T01:42:43.649Z,4.67
2023-04-06T01:43:38.600Z,4.65
2023-04-06T01:44:38.586Z,4.69
2023-04-06T01:45:38.588Z,4.60
2023-04-06T01:46:38.600Z,4.60
2023-04-06T01:47:38.639Z,4.58
2023-04-06T01:48:38.540Z,4.59
2023-04-06T01:49:38.531Z,4.60
2023-04-06T01:50:38.545Z,4.63
2023-04-06T01:51:38.518Z,4.54
2023-04-06T01:52:38.507Z,4.42
2023-04-06T01:53:43.511Z,4.45
2023-04-06T01:54:38.483Z,4.44
2023-04-06T01:55:38.466Z,4.29
2023-04-06T01:56:38.451Z,4.44
2023-04-06T01:57:38.463Z,4.40
2023-04-06T01:58:38.434Z,4.30
2023-04-06T01:59:38.501Z,4.45
2023-04-06T02:00:38.441Z,4.47
2023-04-06T02:01:38.426Z,4.44
2023-04-06T02:02:38.446Z,4.40
2023-04-06T02:03:38.378Z,4.36
2023-04-06T02:04:43.384Z,4.32
2023-04-06T02:05:38.349Z,4.34
2023-04-06T02:06:38.364Z,4.33
2023-04-06T02:07:38.341Z,4.30
2023-04-06T02:08:38.316Z,4.30
2023-04-06T02:09:38.312Z,4.34
2023-04-06T02:10:38.300Z,4.30
2023-04-06T02:11:38.282Z,4.32
2023-04-06T02:12:38.280Z,4.30
2023-04-06T02:13:38.261Z,4.32
2023-04-06T02:14:38.246Z,4.29
2023-04-06T02:15:43.271Z,4.23
2023-04-06T02:16:38.248Z,4.22
2023-04-06T02:17:38.250Z,4.16
2023-04-06T02:18:38.206Z,4.14
2023-04-06T02:19:38.197Z,4.18
2023-04-06T02:20:38.182Z,4.12
2023-04-06T02:21:38.183Z,4.15
2023-04-06T02:22:38.189Z,4.15
2023-04-06T02:23:38.151Z,4.14
2023-04-06T02:24:38.135Z,4.16
2023-04-06T02:25:38.128Z,4.22
2023-04-06T02:26:43.135Z,4.20
2023-04-06T02:27:38.125Z,4.24
2023-04-06T02:28:38.088Z,4.20
2023-04-06T02:29:38.108Z,4.11
2023-04-06T02:30:38.070Z,4.09
2023-04-06T02:31:38.079Z,4.06
2023-04-06T02:32:38.095Z,4.00
2023-04-06T02:33:38.048Z,4.04
2023-04-06T02:34:38.021Z,4.06
2023-04-06T02:35:38.028Z,4.08
2023-04-06T02:36:37.999Z,4.00
2023-04-06T02:37:43.042Z,4.00
2023-04-06T02:38:37.994Z,3.93
2023-04-06T02:39:37.990Z,3.97
2023-04-06T02:40:37.953Z,3.86
2023-04-06T02:41:37.945Z,3.73
2023-04-06T02:42:37.944Z,3.88
2023-04-06T02:43:37.936Z,3.86
2023-04-06T02:44:37.913Z,3.78
2023-04-06T02:45:37.929Z,3.93
2023-04-06T02:46:37.891Z,3.91
2023-04-06T02:47:37.921Z,3.91
2023-04-06T02:48:42.889Z,3.88
2023-04-06T02:49:37.857Z,3.76
2023-04-06T02:50:37.839Z,3.79
2023-04-06T02:51:37.843Z,3.73
2023-04-06T02:52:37.836Z,3.80
2023-04-06T02:53:37.836Z,3.86
2023-04-06T02:54:37.800Z,3.72
2023-04-06T02:55:37.788Z,3.78
2023-04-06T02:56:37.777Z,3.76
2023-04-06T02:57:37.786Z,3.80
2023-04-06T02:58:37.758Z,3.72
2023-04-06T02:59:42.826Z,3.73
2023-04-06T03:00:37.759Z,3.70
2023-04-06T03:01:37.763Z,3.73
2023-04-06T03:02:37.907Z,3.78
2023-04-06T03:03:37.864Z,3.72
2023-04-06T03:04:37.709Z,3.66
2023-04-06T03:05:37.675Z,3.62
2023-04-06T03:06:37.661Z,3.55
2023-04-06T03:07:37.668Z,3.58
2023-04-06T03:08:37.639Z,3.60
2023-04-06T03:09:37.652Z,3.68
2023-04-06T03:10:42.639Z,3.58
2023-04-06T03:11:37.622Z,3.70
2023-04-06T03:12:37.603Z,3.55
2023-04-06T03:13:37.581Z,3.58
2023-04-06T03:14:37.589Z,3.65
2023-04-06T03:15:37.603Z,3.60
2023-04-06T03:16:37.546Z,3.58
2023-04-06T03:17:37.562Z,3.66
2023-04-06T03:18:37.529Z,3.58
2023-04-06T03:19:37.520Z,3.61
2023-04-06T03:20:37.500Z,3.54
2023-04-06T03:21:42.523Z,3.54
2023-04-06T03:22:37.486Z,3.57
2023-04-06T03:23:37.465Z,3.54
2023-04-06T03:24:37.452Z,3.55
2023-04-06T03:25:37.462Z,3.55
2023-04-06T03:26:37.432Z,3.58
2023-04-06T03:27:37.439Z,3.58
2023-04-06T03:28:37.415Z,3.54
2023-04-06T03:29:37.395Z,3.60
2023-04-06T03:30:37.387Z,3.52
2023-04-06T03:31:37.416Z,3.39
2023-04-06T03:32:42.431Z,3.48
2023-04-06T03:33:37.368Z,3.47
2023-04-06T03:34:37.334Z,3.36
2023-04-06T03:35:37.364Z,3.39
2023-04-06T03:36:37.315Z,3.39
2023-04-06T03:37:37.314Z,3.39
2023-04-06T03:38:38.693Z,3.36
2023-04-06T03:39:37.309Z,3.45
2023-04-06T03:40:37.280Z,3.55
2023-04-06T03:41:37.296Z,3.54
2023-04-06T03:42:37.257Z,3.51
2023-04-06T03:43:42.259Z,3.54
2023-04-06T03:44:37.228Z,3.52
2023-04-06T03:45:37.222Z,3.47
2023-04-06T03:46:37.225Z,3.48
2023-04-06T03:47:37.262Z,3.50
2023-04-06T03:48:37.180Z,3.42
2023-04-06T03:49:39.870Z,3.36
2023-04-06T03:50:37.153Z,3.29
2023-04-06T03:51:37.152Z,3.32
2023-04-06T03:52:37.150Z,3.20
2023-04-06T03:53:37.123Z,3.28
2023-04-06T03:54:42.129Z,3.31
2023-04-06T03:55:37.098Z,3.35
2023-04-06T03:56:37.093Z,3.31
2023-04-06T03:57:37.120Z,3.24
2023-04-06T03:58:37.073Z,3.32
2023-04-06T03:59:37.143Z,3.28
2023-04-06T04:00:37.045Z,3.29
2023-04-06T04:01:37.137Z,3.29
2023-04-06T04:02:37.109Z,3.24
2023-04-06T04:03:37.098Z,3.32
2023-04-06T04:04:37.061Z,3.35
2023-04-06T04:05:42.008Z,3.35
2023-04-06T04:06:36.976Z,3.20
2023-04-06T04:07:36.971Z,3.17
2023-04-06T04:08:36.976Z,3.20
2023-04-06T04:09:36.948Z,3.24
2023-04-06T04:10:36.941Z,3.23
2023-04-06T04:11:36.920Z,3.31
2023-04-06T04:12:36.913Z,3.17
2023-04-06T04:13:36.919Z,3.20
2023-04-06T04:14:36.891Z,3.29
2023-04-06T04:15:36.896Z,3.28
2023-04-06T04:16:41.905Z,3.32
2023-04-06T04:17:36.918Z,3.29
2023-04-06T04:18:36.843Z,3.28
2023-04-06T04:19:36.830Z,3.35
2023-04-06T04:20:36.819Z,3.43
2023-04-06T04:21:36.818Z,3.33
2023-04-06T04:22:36.796Z,3.39
2023-04-06T04:23:37.481Z,3.33
2023-04-06T04:24:36.787Z,3.40
2023-04-06T04:25:36.776Z,3.39
2023-04-06T04:26:36.758Z,3.31
2023-04-06T04:27:41.797Z,3.39
2023-04-06T04:28:36.739Z,3.43
2023-04-06T04:29:36.747Z,3.32
2023-04-06T04:30:36.713Z,3.48
2023-04-06T04:31:36.759Z,3.43
2023-04-06T04:32:36.699Z,3.40
2023-04-06T04:33:36.707Z,3.45
2023-04-06T04:34:36.670Z,3.52
2023-04-06T04:35:36.698Z,3.42
2023-04-06T04:36:36.663Z,3.40
2023-04-06T04:37:36.641Z,3.43
2023-04-06T04:38:41.660Z,3.42
2023-04-06T04:39:36.630Z,3.52
2023-04-06T04:40:36.620Z,3.60
2023-04-06T04:41:36.613Z,3.54
2023-04-06T04:42:36.583Z,3.51
2023-04-06T04:43:36.589Z,3.54
2023-04-06T04:44:36.561Z,3.65
2023-04-06T04:45:36.601Z,3.62
2023-04-06T04:46:36.571Z,3.52
2023-04-06T04:47:36.598Z,3.52
2023-04-06T04:48:36.531Z,3.50
2023-04-06T04:49:41.534Z,3.57
2023-04-06T04:50:36.501Z,3.45
2023-04-06T04:51:36.499Z,3.54
2023-04-06T04:52:36.474Z,3.58
2023-04-06T04:53:36.480Z,3.52
2023-04-06T04:54:36.457Z,3.60
2023-04-06T04:55:36.446Z,3.60
2023-04-06T04:56:36.447Z,3.55
2023-04-06T04:57:36.437Z,3.54
2023-04-06T04:58:36.421Z,3.54
2023-04-06T04:59:36.508Z,3.55
2023-04-06T05:00:41.431Z,3.52
2023-04-06T05:01:47.656Z,3.58
2023-04-06T05:02:36.439Z,3.57
2023-04-06T05:03:36.402Z,3.57
2023-04-06T05:04:36.343Z,3.61
2023-04-06T05:05:36.333Z,3.62
2023-04-06T05:06:36.329Z,3.62
2023-04-06T05:07:36.313Z,3.61
2023-04-06T05:08:36.307Z,3.60
2023-04-06T05:09:36.302Z,3.69
2023-04-06T05:10:36.291Z,3.65
2023-04-06T05:11:41.301Z,3.69
2023-04-06T05:12:36.257Z,3.62
2023-04-06T05:13:36.256Z,3.68
2023-04-06T05:14:36.302Z,3.78
2023-04-06T05:15:36.285Z,3.72
2023-04-06T05:16:36.306Z,3.75
2023-04-06T05:17:36.289Z,3.73
2023-04-06T05:18:36.238Z,3.73
2023-04-06T05:19:36.218Z,3.83
2023-04-06T05:20:36.200Z,3.76
2023-04-06T05:21:36.198Z,3.83
2023-04-06T05:22:41.176Z,3.84
2023-04-06T05:23:36.150Z,3.78
2023-04-06T05:24:36.153Z,3.80
2023-04-06T05:25:36.113Z,3.94
2023-04-06T05:26:36.102Z,3.90
2023-04-06T05:27:36.105Z,3.88
2023-04-06T05:28:36.094Z,3.88
2023-04-06T05:29:36.073Z,3.72
2023-04-06T05:30:36.060Z,3.75
2023-04-06T05:31:36.116Z,3.72
2023-04-06T05:32:36.118Z,3.73
2023-04-06T05:33:41.082Z,3.94
2023-04-06T05:34:36.016Z,3.84
2023-04-06T05:35:36.038Z,3.73
2023-04-06T05:36:35.995Z,3.70
2023-04-06T05:37:35.983Z,3.61
2023-04-06T05:38:35.974Z,3.60
2023-04-06T05:39:35.970Z,3.60
2023-04-06T05:40:35.942Z,3.62
2023-04-06T05:41:35.930Z,3.66
2023-04-06T05:42:35.923Z,3.87
2023-04-06T05:43:35.922Z,3.86
2023-04-06T05:44:40.917Z,3.90
2023-04-06T05:45:35.909Z,3.90
2023-04-06T05:46:36.003Z,4.08
2023-04-06T05:47:35.910Z,4.29
2023-04-06T05:48:35.999Z,4.60
2023-04-06T05:49:35.841Z,4.85
2023-04-06T05:50:35.827Z,5.04
2023-04-06T05:51:35.821Z,5.20
2023-04-06T05:52:35.805Z,5.18
2023-04-06T05:53:35.797Z,5.18
2023-04-06T05:54:35.777Z,5.07
2023-04-06T05:55:40.799Z,4.85
2023-04-06T05:56:35.757Z,4.69
2023-04-06T05:57:35.751Z,4.78
2023-04-06T05:58:35.742Z,4.75
2023-04-06T05:59:35.762Z,4.80
2023-04-06T06:00:35.712Z,4.72
2023-04-06T06:01:35.762Z,4.80
2023-04-06T06:02:35.788Z,4.77
2023-04-06T06:03:35.704Z,4.84
2023-04-06T06:04:35.748Z,4.88
2023-04-06T06:05:35.665Z,4.82
2023-04-06T06:06:40.674Z,4.84
2023-04-06T06:07:35.667Z,4.73
2023-04-06T06:08:35.622Z,4.85
2023-04-06T06:09:35.623Z,4.85
2023-04-06T06:10:35.597Z,4.86
2023-04-06T06:11:35.583Z,4.84
2023-04-06T06:12:35.571Z,4.75
2023-04-06T06:13:35.571Z,4.69
2023-04-06T06:14:35.551Z,4.72
2023-04-06T06:15:35.544Z,4.82
2023-04-06T06:16:35.546Z,4.72
2023-04-06T06:17:40.574Z,4.80
2023-04-06T06:18:35.532Z,4.78
2023-04-06T06:19:35.717Z,4.88
2023-04-06T06:20:35.502Z,4.89
2023-04-06T06:21:35.505Z,4.91
2023-04-06T06:22:35.461Z,4.99
2023-04-06T06:23:35.463Z,4.89
2023-04-06T06:24:35.445Z,5.02
2023-04-06T06:25:35.423Z,5.06
2023-04-06T06:26:35.409Z,5.02
2023-04-06T06:27:35.412Z,5.00
2023-04-06T06:28:40.418Z,5.03
2023-04-06T06:29:35.379Z,5.17
2023-04-06T06:30:35.384Z,5.13
2023-04-06T06:31:35.385Z,5.13
2023-04-06T06:32:35.420Z,5.20
2023-04-06T06:33:35.348Z,5.17
2023-04-06T06:34:35.322Z,5.18
2023-04-06T06:35:35.331Z,5.22
2023-04-06T06:36:35.586Z,5.28
2023-04-06T06:37:35.318Z,5.24
2023-04-06T06:38:35.296Z,5.25
2023-04-06T06:39:40.309Z,5.30
2023-04-06T06:40:35.317Z,5.35
2023-04-06T06:41:35.266Z,5.28
2023-04-06T06:42:35.236Z,5.33
2023-04-06T06:43:35.241Z,5.42
2023-04-06T06:44:35.220Z,5.42
2023-04-06T06:45:35.224Z,5.33
2023-04-06T06:46:35.196Z,5.35
2023-04-06T06:47:35.227Z,5.25
2023-04-06T06:48:35.182Z,5.36
2023-04-06T06:49:35.161Z,5.38
2023-04-06T06:50:40.176Z,5.48
2023-04-06T06:51:35.151Z,5.53
2023-04-06T06:52:35.189Z,5.65
2023-04-06T06:53:35.136Z,5.68
2023-04-06T06:54:35.114Z,5.86
2023-04-06T06:55:35.089Z,6.06
2023-04-06T06:56:35.077Z,6.30
2023-04-06T06:57:35.070Z,6.52
2023-04-06T06:58:35.070Z,6.89
2023-04-06T06:59:35.100Z,7.27
2023-04-06T07:00:35.034Z,7.77
2023-04-06T07:01:40.112Z,8.00
2023-04-06T07:02:35.022Z,8.20
2023-04-06T07:03:35.022Z,8.04
2023-04-06T07:04:35.031Z,8.08
2023-04-06T07:05:34.988Z,8.01
2023-04-06T07:06:34.983Z,8.00
2023-04-06T07:07:34.950Z,7.77
2023-04-06T07:08:35.004Z,7.79
2023-04-06T07:09:34.945Z,7.74
2023-04-06T07:10:34.921Z,7.52
2023-04-06T07:11:34.918Z,7.60
2023-04-06T07:12:39.927Z,7.95
2023-04-06T07:13:34.909Z,8.20
2023-04-06T07:14:34.889Z,8.26
2023-04-06T07:15:34.860Z,8.36
2023-04-06T07:16:34.897Z,8.43
2023-04-06T07:17:34.891Z,8.68
2023-04-06T07:18:36.232Z,8.62
2023-04-06T07:19:34.820Z,8.29
2023-04-06T07:20:34.849Z,8.25
2023-04-06T07:21:34.844Z,8.33
2023-04-06T07:22:34.788Z,7.86
2023-04-06T07:23:39.884Z,7.43
2023-04-06T07:24:34.761Z,7.10
2023-04-06T07:25:34.762Z,7.10
2023-04-06T07:26:34.743Z,7.39
2023-04-06T07:27:34.731Z,7.61
2023-04-06T07:28:34.721Z,7.77
2023-04-06T07:29:34.740Z,7.74
2023-04-06T07:30:36.889Z,7.58
2023-04-06T07:31:34.756Z,7.39
2023-04-06T07:32:34.723Z,7.39
2023-04-06T07:33:34.662Z,7.34
2023-04-06T07:34:39.672Z,7.31
2023-04-06T07:35:34.697Z,7.28
2023-04-06T07:36:34.624Z,7.13
2023-04-06T07:37:34.614Z,6.99
2023-04-06T07:38:34.600Z,6.97
2023-04-06T07:39:34.620Z,7.31
2023-04-06T07:40:34.599Z,7.40
2023-04-06T07:41:34.604Z,7.68
2023-04-06T07:42:34.556Z,7.93
2023-04-06T07:43:34.545Z,8.08
2023-04-06T07:44:34.552Z,8.26
2023-04-06T07:45:39.613Z,8.45
2023-04-06T07:46:34.562Z,8.70
2023-04-06T07:47:34.538Z,8.59
2023-04-06T07:48:34.497Z,8.59
2023-04-06T07:49:34.483Z,8.66
2023-04-06T07:50:34.469Z,8.98
2023-04-06T07:51:34.450Z,9.21
2023-04-06T07:52:36.977Z,9.58
2023-04-06T07:53:34.437Z,9.54
2023-04-06T07:54:34.433Z,9.66
2023-04-06T07:55:34.437Z,9.65
2023-04-06T07:56:39.425Z,9.53
2023-04-06T07:57:34.385Z,9.51
2023-04-06T07:58:34.375Z,9.51
2023-04-06T07:59:34.394Z,9.69
2023-04-06T08:00:34.365Z,9.68
2023-04-06T08:01:34.341Z,9.84
2023-04-06T08:02:34.483Z,9.93
2023-04-06T08:03:34.627Z,9.64
2023-04-06T08:04:34.364Z,9.56
2023-04-06T08:05:34.362Z,9.56
2023-04-06T08:06:34.285Z,9.53
2023-04-06T08:07:39.298Z,9.46
2023-04-06T08:08:34.261Z,9.46
2023-04-06T08:09:34.260Z,9.57
2023-04-06T08:10:34.240Z,9.54
2023-04-06T08:11:34.251Z,9.57
2023-04-06T08:12:34.217Z,9.72
2023-04-06T08:13:34.208Z,9.87
2023-04-06T08:14:34.204Z,10.02
2023-04-06T08:15:34.192Z,10.09
2023-04-06T08:16:34.168Z,9.75
2023-04-06T08:17:34.183Z,9.69
2023-04-06T08:18:39.171Z,9.54
2023-04-06T08:19:34.156Z,9.18
2023-04-06T08:20:34.127Z,9.33
2023-04-06T08:21:34.127Z,9.28
2023-04-06T08:22:34.110Z,9.29
2023-04-06T08:23:34.092Z,9.31
2023-04-06T08:24:34.088Z,9.48
2023-04-06T08:25:34.072Z,9.18
2023-04-06T08:26:34.065Z,8.86
2023-04-06T08:27:34.073Z,8.80
2023-04-06T08:28:34.033Z,9.02
2023-04-06T08:29:39.057Z,9.21
2023-04-06T08:30:34.015Z,9.48
2023-04-06T08:31:34.010Z,9.54
2023-04-06T08:32:34.015Z,9.72
2023-04-06T08:33:33.980Z,10.14
2023-04-06T08:34:33.999Z,10.38
2023-04-06T08:35:33.953Z,10.56
2023-04-06T08:36:33.950Z,10.53
2023-04-06T08:37:33.928Z,10.47
2023-04-06T08:38:33.920Z,10.61
2023-04-06T08:39:33.918Z,10.86
2023-04-06T08:40:38.914Z,11.10
2023-04-06T08:41:33.891Z,11.36
2023-04-06T08:42:33.877Z,11.43
2023-04-06T08:43:33.880Z,11.28
2023-04-06T08:44:33.914Z,11.21
2023-04-06T08:45:33.841Z,11.14
2023-04-06T08:46:33.980Z,11.21
2023-04-06T08:47:33.846Z,11.11
2023-04-06T08:48:33.811Z,11.07
2023-04-06T08:49:33.800Z,11.09
2023-04-06T08:50:33.786Z,11.07
2023-04-06T08:51:38.794Z,11.03
2023-04-06T08:52:33.763Z,10.79
2023-04-06T08:53:33.752Z,10.78
2023-04-06T08:54:33.759Z,10.82
2023-04-06T08:55:33.725Z,10.94
2023-04-06T08:56:33.715Z,11.29
2023-04-06T08:57:33.707Z,11.39
2023-04-06T08:58:38.270Z,11.27
2023-04-06T08:59:33.803Z,11.28
2023-04-06T09:00:33.679Z,11.25
2023-04-06T09:01:33.693Z,10.64
2023-04-06T09:02:38.729Z,10.42
2023-04-06T09:03:33.777Z,10.59
2023-04-06T09:04:33.706Z,10.94
2023-04-06T09:05:33.615Z,11.06
2023-04-06T09:06:33.625Z,10.97
2023-04-06T09:07:33.594Z,11.22
2023-04-06T09:08:33.584Z,11.40
2023-04-06T09:09:33.577Z,11.73
2023-04-06T09:10:33.556Z,12.01
2023-04-06T09:11:33.547Z,11.98
2023-04-06T09:12:33.540Z,11.80
2023-04-06T09:13:38.543Z,11.88
2023-04-06T09:14:33.520Z,11.85
2023-04-06T09:15:33.523Z,11.85
2023-04-06T09:16:33.603Z,11.90
2023-04-06T09:17:33.490Z,11.96
2023-04-06T09:18:33.484Z,12.45
2023-04-06T09:19:33.468Z,12.70
2023-04-06T09:20:33.446Z,12.89
2023-04-06T09:21:33.445Z,13.19
2023-04-06T09:22:33.424Z,12.72
2023-04-06T09:23:33.493Z,11.72
2023-04-06T09:24:38.438Z,11.18
2023-04-06T09:25:33.387Z,11.18
2023-04-06T09:26:33.379Z,11.40
2023-04-06T09:27:33.374Z,11.86
2023-04-06T09:28:33.354Z,12.07
2023-04-06T09:29:33.350Z,12.37
2023-04-06T09:30:33.337Z,12.85
2023-04-06T09:31:33.490Z,13.29
2023-04-06T09:32:33.352Z,13.63
2023-04-06T09:33:33.305Z,13.82
2023-04-06T09:34:33.307Z,13.64
2023-04-06T09:35:38.330Z,13.23
2023-04-06T09:36:33.284Z,13.15
2023-04-06T09:37:33.263Z,13.05
2023-04-06T09:38:33.244Z,13.19
2023-04-06T09:39:33.240Z,13.15
2023-04-06T09:40:33.219Z,13.42
2023-04-06T09:41:33.216Z,13.42
2023-04-06T09:42:33.228Z,13.49
2023-04-06T09:43:33.209Z,13.63
2023-04-06T09:44:33.196Z,13.63
2023-04-06T09:45:33.162Z,13.66
2023-04-06T09:46:55.172Z,13.39
2023-04-06T09:47:34.247Z,13.04
2023-04-06T09:48:33.188Z,12.71
2023-04-06T09:49:33.133Z,12.27
2023-04-06T09:50:33.112Z,12.39
2023-04-06T09:51:35.596Z,12.71
2023-04-06T09:52:33.088Z,13.19
2023-04-06T09:53:33.070Z,13.45
2023-04-06T09:54:33.074Z,13.55
2023-04-06T09:55:33.075Z,13.55
2023-04-06T09:56:33.036Z,13.59
2023-04-06T09:57:38.055Z,13.66
2023-04-06T09:58:33.137Z,13.81
2023-04-06T09:59:33.084Z,13.71
2023-04-06T10:00:33.031Z,13.92
2023-04-06T10:01:33.081Z,13.91
2023-04-06T10:02:33.073Z,13.69
2023-04-06T10:03:33.071Z,13.22
2023-04-06T10:04:32.957Z,12.90
2023-04-06T10:05:32.932Z,12.93
2023-04-06T10:06:32.919Z,13.23
2023-04-06T10:07:32.946Z,13.07
2023-04-06T10:08:37.923Z,13.14
2023-04-06T10:09:32.883Z,13.41
2023-04-06T10:10:32.883Z,13.49
2023-04-06T10:11:32.858Z,13.73
2023-04-06T10:12:32.888Z,14.02
2023-04-06T10:13:32.847Z,14.04
2023-04-06T10:14:32.828Z,14.14
2023-04-06T10:15:32.826Z,14.32
2023-04-06T10:16:32.853Z,14.37
2023-04-06T10:17:32.836Z,14.46
2023-04-06T10:18:32.805Z,14.14
2023-04-06T10:19:37.861Z,14.24
2023-04-06T10:20:32.762Z,14.21
2023-04-06T10:21:32.744Z,14.20
2023-04-06T10:22:32.747Z,14.17
2023-04-06T10:23:33.342Z,14.28
2023-04-06T10:24:32.715Z,14.47
2023-04-06T10:25:32.707Z,14.69
2023-04-06T10:26:32.715Z,14.29
2023-04-06T10:27:32.692Z,14.17
2023-04-06T10:28:32.670Z,13.78
2023-04-06T10:29:32.656Z,13.52
2023-04-06T10:30:37.679Z,13.39
2023-04-06T10:31:32.641Z,13.17
2023-04-06T10:32:32.701Z,13.15
2023-04-06T10:33:32.615Z,13.19
2023-04-06T10:34:32.650Z,13.29
2023-04-06T10:35:32.615Z,13.45
2023-04-06T10:36:32.581Z,13.79
2023-04-06T10:37:32.569Z,13.97
2023-04-06T10:38:32.585Z,14.32
2023-04-06T10:39:32.555Z,14.60
2023-04-06T10:40:32.552Z,14.91
2023-04-06T10:41:37.552Z,15.28
2023-04-06T10:42:32.554Z,15.62
2023-04-06T10:43:32.517Z,15.78
2023-04-06T10:44:32.508Z,15.83
2023-04-06T10:45:32.543Z,15.92
2023-04-06T10:46:32.492Z,15.97
2023-04-06T10:47:32.475Z,15.68
2023-04-06T10:48:32.447Z,15.35
2023-04-06T10:49:32.452Z,15.41
2023-04-06T10:50:32.483Z,15.25
2023-04-06T10:51:32.423Z,15.25
2023-04-06T10:52:37.427Z,15.39
2023-04-06T10:53:32.397Z,15.51
2023-04-06T10:54:32.385Z,15.62
2023-04-06T10:55:32.390Z,15.38
2023-04-06T10:56:32.362Z,14.99
2023-04-06T10:57:32.401Z,14.73
2023-04-06T10:58:32.335Z,14.64
2023-04-06T10:59:32.379Z,14.62
2023-04-06T11:00:47.117Z,14.60
2023-04-06T11:01:32.344Z,14.50
2023-04-06T11:02:32.379Z,14.52
2023-04-06T11:03:37.299Z,14.25
2023-04-06T11:04:32.289Z,14.37
2023-04-06T11:05:32.264Z,14.57
2023-04-06T11:06:32.275Z,14.61
2023-04-06T11:07:32.273Z,14.65
2023-04-06T11:08:32.235Z,14.83
2023-04-06T11:09:32.207Z,14.98
2023-04-06T11:10:32.198Z,15.14
2023-04-06T11:11:32.192Z,15.28
2023-04-06T11:12:32.171Z,15.51
2023-04-06T11:13:32.203Z,15.59
2023-04-06T11:14:37.189Z,15.64
2023-04-06T11:15:32.136Z,15.64
2023-04-06T11:16:32.265Z,15.31
2023-04-06T11:17:32.127Z,15.11
2023-04-06T11:18:32.106Z,14.73
2023-04-06T11:19:32.116Z,14.99
2023-04-06T11:20:32.103Z,15.02
2023-04-06T11:21:32.085Z,15.03
2023-04-06T11:22:32.094Z,15.03
2023-04-06T11:23:32.049Z,14.91
2023-04-06T11:24:32.038Z,14.73
2023-04-06T11:25:37.103Z,14.43
2023-04-06T11:26:32.022Z,14.50
2023-04-06T11:27:32.018Z,14.54
2023-04-06T11:28:32.019Z,14.86
2023-04-06T11:29:32.172Z,14.92
2023-04-06T11:30:31.974Z,14.86
2023-04-06T11:31:32.111Z,14.99
2023-04-06T11:32:32.023Z,15.01
2023-04-06T11:33:31.938Z,14.92
2023-04-06T11:34:31.934Z,14.91
2023-04-06T11:35:31.914Z,15.13
2023-04-06T11:36:36.937Z,15.28
2023-04-06T11:37:31.892Z,15.44
2023-04-06T11:38:31.907Z,15.53
2023-04-06T11:39:31.922Z,15.46
2023-04-06T11:40:31.860Z,15.31
2023-04-06T11:41:31.894Z,15.38
2023-04-06T11:42:31.837Z,15.09
2023-04-06T11:43:31.825Z,14.92
2023-04-06T11:44:31.814Z,14.91
2023-04-06T11:45:31.840Z,15.03
2023-04-06T11:46:31.812Z,15.14
2023-04-06T11:47:36.937Z,15.34
2023-04-06T11:48:31.838Z,15.19
2023-04-06T11:49:31.759Z,15.02
2023-04-06T11:50:31.789Z,14.95
2023-04-06T11:51:31.739Z,14.94
2023-04-06T11:52:31.769Z,15.02
2023-04-06T11:53:31.718Z,14.92
2023-04-06T11:54:31.784Z,14.86
2023-04-06T11:55:33.276Z,14.68
2023-04-06T11:56:31.693Z,14.36
2023-04-06T11:57:31.675Z,14.39
2023-04-06T11:58:36.709Z,14.45
2023-04-06T11:59:31.673Z,14.83
2023-04-06T12:00:31.631Z,15.25
2023-04-06T12:01:34.166Z,15.44
2023-04-06T12:02:31.651Z,15.90
2023-04-06T12:03:31.741Z,16.00
2023-04-06T12:04:31.707Z,16.05
2023-04-06T12:05:31.577Z,16.30
2023-04-06T12:06:31.576Z,16.20
2023-04-06T12:07:31.553Z,16.49
2023-04-06T12:08:31.550Z,16.64
2023-04-06T12:09:36.594Z,16.61
2023-04-06T12:10:31.548Z,16.67
2023-04-06T12:11:31.514Z,16.57
2023-04-06T12:12:31.493Z,16.56
2023-04-06T12:13:31.484Z,16.25
2023-04-06T12:14:31.495Z,15.92
2023-04-06T12:15:31.458Z,15.65
2023-04-06T12:16:31.533Z,15.68
2023-04-06T12:17:31.480Z,15.65
2023-04-06T12:18:31.465Z,15.49
2023-04-06T12:19:32.537Z,15.34
2023-04-06T12:20:36.421Z,15.29
2023-04-06T12:21:31.404Z,14.92
2023-04-06T12:22:31.380Z,14.99
2023-04-06T12:23:31.370Z,15.28
2023-04-06T12:24:31.387Z,15.53
2023-04-06T12:25:32.379Z,15.50
2023-04-06T12:26:31.349Z,15.49
2023-04-06T12:27:31.324Z,15.47
2023-04-06T12:28:31.311Z,15.51
2023-04-06T12:29:31.305Z,15.43
2023-04-06T12:30:31.313Z,15.31
2023-04-06T12:31:36.427Z,15.32
2023-04-06T12:32:31.304Z,15.41
2023-04-06T12:33:31.265Z,15.27
2023-04-06T12:34:31.263Z,15.46
2023-04-06T12:35:31.234Z,15.69
2023-04-06T12:36:31.359Z,15.69
2023-04-06T12:37:31.212Z,15.90
2023-04-06T12:38:31.207Z,16.20
2023-04-06T12:39:31.236Z,16.48
2023-04-06T12:40:31.175Z,16.60
2023-04-06T12:41:31.190Z,16.91
2023-04-06T12:42:36.210Z,17.56
2023-04-06T12:43:31.136Z,17.54
2023-04-06T12:44:31.132Z,17.07
2023-04-06T12:45:31.116Z,16.67
2023-04-06T12:46:31.171Z,16.30
2023-04-06T12:47:31.124Z,16.07
2023-04-06T12:48:31.099Z,16.50
2023-04-06T12:49:32.127Z,16.81
2023-04-06T12:50:31.088Z,16.66
2023-04-06T12:51:31.066Z,16.27
2023-04-06T12:52:31.048Z,16.46
2023-04-06T12:53:36.055Z,16.71
2023-04-06T12:54:31.012Z,16.85
2023-04-06T12:55:31.028Z,17.26
2023-04-06T12:56:31.020Z,17.19
2023-04-06T12:57:31.006Z,16.93
2023-04-06T12:58:30.970Z,16.79
2023-04-06T12:59:31.057Z,16.82
2023-04-06T13:00:31.011Z,16.41
2023-04-06T13:01:31.060Z,16.12
2023-04-06T13:02:31.069Z,15.75
2023-04-06T13:03:31.078Z,15.67
2023-04-06T13:04:35.920Z,15.65
2023-04-06T13:05:32.414Z,15.34
2023-04-06T13:06:31.384Z,14.72
2023-04-06T13:07:30.874Z,14.69
2023-04-06T13:08:30.880Z,14.52
2023-04-06T13:09:30.843Z,14.60